Address 0x7b6cfc51415650b9d4c92b244a2f804718a71dc8 4

Txn Hash Method
Block
From
To
Value [Txn Fee]
0xaa5fb19b4c68884f4b5b8b214198e8a706dec9ad9eef406b25c4596aa7a5c356Swap Tokens For ...279112772023-03-26 2:04:3253 mins ago0x7b6cfc51415650b9d4c92b244a2f804718a71dc8OUT Pangolin: Router0 AVAX0.0010660685 26.5
0xef6f188cb4628ab6d261ab356c1e17f2b3a95b9be834eb307ef3a9d1b0c31807Swap Tokens For ...279112732023-03-26 2:04:2453 mins ago0x7b6cfc51415650b9d4c92b244a2f804718a71dc8OUT Pangolin: Router0 AVAX0.002939486 26.5
0x3ac82a2dca1832dd5ad45a10281b208b1e13b74821a2ba637e89d80c06a3572cSwap Tokens For ...279112682023-03-26 2:04:1454 mins ago0x7b6cfc51415650b9d4c92b244a2f804718a71dc8OUT Pangolin: Router0 AVAX0.000852558 26.5
0xbe13f0dfd0d5cec56c5a33e0ea51a1616f5113d403565d561fc0abd44e7ac36cSwap Tokens For ...279112562023-03-26 2:03:4654 mins ago0x7b6cfc51415650b9d4c92b244a2f804718a71dc8OUT Pangolin: Router0 AVAX0.000852558 26.5
0x42f41793a5ff26be9387a064ec5b62eaed44f2934ab5c750bc42fa4fa2bf2abeSwap Exact Token...279105702023-03-26 1:39:321 hr 18 mins ago0x7b6cfc51415650b9d4c92b244a2f804718a71dc8OUT Pangolin: Router0 AVAX0.0025111665 26.5
0xac903745867a50266eef7317d88edfc111de7b55e03dc53c2e3fb68724c0086aSwap Tokens For ...279091772023-03-26 0:51:162 hrs 7 mins ago0x7b6cfc51415650b9d4c92b244a2f804718a71dc8OUT Pangolin: Router0 AVAX0.000851604 26.5
0x4605bab0f5d894efa805c75f0c50337839a4e0945d29e75bb013f5275b920b46Swap Tokens For ...279091732023-03-26 0:51:072 hrs 7 mins ago0x7b6cfc51415650b9d4c92b244a2f804718a71dc8OUT Pangolin: Router0 AVAX0.0032845955 26.5
0xc22989fe22d98b11694ff9c28d68ac8987167f181078d81cde8315a82352a6cdSwap Tokens For ...279091682023-03-26 0:50:572 hrs 7 mins ago0x7b6cfc51415650b9d4c92b244a2f804718a71dc8OUT Pangolin: Router0 AVAX0.0037377455 26.5
0x74a213b090133298adaec102b7ae998fca6bb0363f283c6961dd38004405d53cSwap Tokens For ...279090852023-03-26 0:48:102 hrs 10 mins ago0x7b6cfc51415650b9d4c92b244a2f804718a71dc8OUT Pangolin: Router0 AVAX0.000851604 26.5
0x48250e2dad52fd02a4f298ebfa66876e3da5f895ef7624c6cbfdcd4fc5e5c4bdSwap Tokens For ...279088622023-03-26 0:40:292 hrs 17 mins ago0x7b6cfc51415650b9d4c92b244a2f804718a71dc8OUT Pangolin: Router0 AVAX0.000851604 26.5
0x12926c27dcf865e49ddb5090b31b53b1dbd30bd789550ff5c715d5dfbe31cb8fSwap Tokens For ...279087092023-03-26 0:35:172 hrs 23 mins ago0x7b6cfc51415650b9d4c92b244a2f804718a71dc8OUT Pangolin: Router0 AVAX0.000851604 26.5
0x193ab4018fcd93d860d085fe7c4250e8a3b648c957838100042e798d62a79596Swap Tokens For ...279077292023-03-26 0:01:172 hrs 57 mins ago0x7b6cfc51415650b9d4c92b244a2f804718a71dc8OUT Pangolin: Router0 AVAX0.000851604 26.5
0x79572baa0d6eb986d2e8bd24a313cb97c7ab048be877b6fbdc7c9db89aa50af5Swap Tokens For ...279077062023-03-26 0:00:352 hrs 57 mins ago0x7b6cfc51415650b9d4c92b244a2f804718a71dc8OUT Pangolin: Router0 AVAX0.000851604 26.5
0x0abde25824958e1eb146d69c14ad83b125422ed17e6de9ddff3b517da612eb6aSwap Tokens For ...279076982023-03-26 0:00:172 hrs 58 mins ago0x7b6cfc51415650b9d4c92b244a2f804718a71dc8OUT Pangolin: Router0 AVAX0.000851604 26.5
0x8b677757d7f1bd2ce7e01e40b3b5286684bdf95c81609e94574c2e1782bf878cSwap Tokens For ...279076162023-03-25 23:57:323 hrs ago0x7b6cfc51415650b9d4c92b244a2f804718a71dc8OUT Pangolin: Router0 AVAX0.000851604 26.5
0xff0ec4b7c8058b4fb7e7c9a5b5836ddf908891653003b29e342e4780ab2df792Swap Exact Token...279059552023-03-25 23:00:253 hrs 57 mins ago0x7b6cfc51415650b9d4c92b244a2f804718a71dc8OUT Pangolin: Router0 AVAX0.00303213 26.5
0xb0d573d14730a5b6cc77d09ff219a398a6dc97b863a451bbc9dbe120e5ca4ab5Swap Tokens For ...279056902023-03-25 22:51:204 hrs 6 mins ago0x7b6cfc51415650b9d4c92b244a2f804718a71dc8OUT Trader Joe: Router0 AVAX0.001515535 26.5
0xf414ba1d3f276ae08bbc92bfc57565c75230477006558a53869f5e3acc2fd23dSwap Tokens For ...279056852023-03-25 22:51:094 hrs 7 mins ago0x7b6cfc51415650b9d4c92b244a2f804718a71dc8OUT Trader Joe: Router0 AVAX0.003695107 26.5
0xa12ecf461d6eaced51ed0bd2667b38e69a6532a1b827150f45414726b5470381Swap Exact Token...279047532023-03-25 22:18:564 hrs 39 mins ago0x7b6cfc51415650b9d4c92b244a2f804718a71dc8OUT Trader Joe: Router0 AVAX0.0028110935 26.5
0x6007480ac45a288695e1d33132621c3b093e512b5b58a14e599feb4ae23834ebSwap Tokens For ...279046872023-03-25 22:16:414 hrs 41 mins ago0x7b6cfc51415650b9d4c92b244a2f804718a71dc8OUT Pangolin: Router0 AVAX0.003392636 26.5
0xc154124a21dac6ed3e4b07e12d79c4ec0e6a4ccce4a6918baf38e3f3d50ae365Swap Tokens For ...279046802023-03-25 22:16:264 hrs 41 mins ago0x7b6cfc51415650b9d4c92b244a2f804718a71dc8OUT Pangolin: Router0 AVAX0.000852558 26.5
0x971859baace69c03a056a9502e670b5c39a945cf3699323ae3636db609adf76cSwap Tokens For ...279046802023-03-25 22:16:264 hrs 41 mins ago0x7b6cfc51415650b9d4c92b244a2f804718a71dc8OUT Pangolin: Router0 AVAX0.000852558 26.5
0x0cee16fbfd4b073e7f47c6215cc9b61586bd0924ca56e4b8c5eb473c78a322d5Swap Tokens For ...279046802023-03-25 22:16:264 hrs 41 mins ago0x7b6cfc51415650b9d4c92b244a2f804718a71dc8OUT Pangolin: Router0 AVAX0.000852558 26.5
0xa8759bdf9d24d581273501bfc081c6f2ecc52f8b18ae22199bfd12ed6a2150a4Swap Tokens For ...279046802023-03-25 22:16:264 hrs 41 mins ago0x7b6cfc51415650b9d4c92b244a2f804718a71dc8OUT Pangolin: Router0 AVAX0.000851604 26.5
0xfb0aa2ba596131fa69977ad5003b3f9ebbd5c9404ad8cc747cd1389f9758ca60Swap Tokens For ...279046112023-03-25 22:14:094 hrs 44 mins ago0x7b6cfc51415650b9d4c92b244a2f804718a71dc8OUT Pangolin: Router0 AVAX0.000851604 26.5
[ Download CSV Export 
Latest 3 internal transactions
Parent Txn Hash Block From To Value
0x2db8d9c26a975a31e331f720d4295c91e1acfd83ae9fa35f646aeee15b7e28ea245442342023-01-05 9:21:3379 days 17 hrs ago Wrapped AVAX0x7b6cfc51415650b9d4c92b244a2f804718a71dc80.05446 AVAX
0xe8690e60730f3e272ae58a3915f29f6ab89cbc4d19a077fb8415fe5d243ba1bd244978852023-01-04 7:05:2480 days 19 hrs ago Wrapped AVAX0x7b6cfc51415650b9d4c92b244a2f804718a71dc80.019741502466105295 AVAX
0x61860b0a15f6d5508c4d5840a681b96d7f73f6fa31a478c10a5509bb480f0af4243096372022-12-30 18:32:4985 days 8 hrs ago Wrapped AVAX0x7b6cfc51415650b9d4c92b244a2f804718a71dc80.3575 AVAX
[ Download CSV Export 
Loading

Contract Name:
0

Compiler Version
0

Optimization Enabled:
0

Other Settings:
-NA-
Block Transaction Gas Used Reward
Age Block Fee Address BC Fee Address Voting Power Jailed Incoming
Block Uncle Number Difficulty Gas Used Reward
Loading
Make sure to use the "Vote Down" button for any spammy posts, and the "Vote Up" for interesting conversations.